Time;durP1;ratioP1;P1;durP2;ratioP2;P2;SDS_P1;SDS_P2;PMS_P1;PMS_P2;Temp;Humidity;BMP_temperature;BMP_pressure;BME280_temperature;BME280_humidity;BME280_pressure;Samples;Min_cycle;Max_cycle;Signal;HPM_P1;HPM_P2
2021/12/04 00:02:00;;;;;;;;;;;;;;;1.95;77.25;97138.88;6398717;27;20295;-64
2021/12/04 00:05:07;;;;;;;;;;;;;;;2.02;77.42;97136.09;6397548;27;19923;-62
2021/12/04 00:08:08;;;;;;;;;;;;;;;2.16;77.13;97142.69;6397299;27;20311;-63
2021/12/04 00:11:09;;;;;;;;;;;;;;;2.22;76.58;97153.72;6397843;27;19923;-64
2021/12/04 00:14:10;;;;;;;;;;;;;;;2.30;76.40;97150.94;6398364;27;20284;-63
2021/12/04 00:17:14;;;;;;;;;;;;;;;2.21;76.02;97152.03;6398268;27;19930;-63
2021/12/04 00:20:17;;;;;;;;;;;;;;;2.24;76.40;97154.56;6398092;27;19929;-63
2021/12/04 00:23:18;;;;;;;;;;;;;;;2.23;76.38;97160.63;6398087;27;20410;-62
2021/12/04 00:26:19;;;;;;;;;;;;;;;2.05;76.52;97150.75;6398028;27;19980;-62
2021/12/04 00:29:23;;;;;;;;;;;;;;;2.03;76.92;97152.53;6398057;27;19930;-63
2021/12/04 00:32:35;;;;;;;;;;;;;;;1.84;76.93;97151.28;6397152;27;20419;-63
2021/12/04 00:35:44;;;;;;;;;;;;;;;1.82;77.21;97143.56;6397675;27;19923;-63
2021/12/04 00:52:09;;;;;;;;;;;;;;;1.70;78.81;97170.69;6397808;27;20328;-62
2021/12/04 00:55:15;;;;;;;;;;;;;;;1.71;78.53;97161.16;6396422;27;20303;-63
2021/12/04 00:58:19;;;;;;;;;;;;;;;1.95;78.35;97172.63;6397416;27;20131;-63
2021/12/04 01:01:23;;;;;;;;;;;;;;;2.03;78.17;97162.91;6397442;27;19949;-64
2021/12/04 01:04:24;;;;;;;;;;;;;;;2.31;76.69;97167.38;6396622;27;19919;-64
2021/12/04 01:07:28;;;;;;;;;;;;;;;2.36;75.82;97163.75;6397428;27;19922;-64
2021/12/04 01:10:29;;;;;;;;;;;;;;;2.14;76.50;97170.41;6396696;27;19918;-63
2021/12/04 01:13:31;;;;;;;;;;;;;;;1.99;76.79;97171.66;6396750;27;19923;-63
2021/12/04 01:16:32;;;;;;;;;;;;;;;2.12;77.00;97172.19;6396158;27;20391;-63
2021/12/04 01:19:33;;;;;;;;;;;;;;;1.90;77.23;97166.72;6397082;27;19923;-64
2021/12/04 01:22:39;;;;;;;;;;;;;;;1.85;77.25;97176.38;6397479;27;19923;-64
2021/12/04 01:25:44;;;;;;;;;;;;;;;2.09;76.94;97173.13;6397142;27;20013;-63
2021/12/04 01:28:45;;;;;;;;;;;;;;;1.91;76.66;97174.47;6396424;27;19946;-64
2021/12/04 01:31:51;;;;;;;;;;;;;;;1.78;76.87;97184.31;6397363;27;19919;-63
2021/12/04 01:34:55;;;;;;;;;;;;;;;1.82;76.68;97189.41;6397107;27;19923;-63
2021/12/04 01:37:56;;;;;;;;;;;;;;;1.82;77.38;97190.25;6377797;27;19930;-63
2021/12/04 01:40:57;;;;;;;;;;;;;;;1.95;76.38;97191.66;6396055;27;19967;-62
2021/12/04 01:43:59;;;;;;;;;;;;;;;1.87;76.92;97195.31;6397529;27;19923;-63
2021/12/04 01:47:09;;;;;;;;;;;;;;;1.81;76.87;97191.13;6396430;27;20304;-63
2021/12/04 01:50:10;;;;;;;;;;;;;;;1.98;76.52;97194.19;6396019;27;20395;-63
2021/12/04 01:53:11;;;;;;;;;;;;;;;2.06;76.50;97188.78;6397035;27;19926;-63
2021/12/04 01:56:15;;;;;;;;;;;;;;;2.19;75.91;97207.50;6396794;27;19929;-63
2021/12/04 01:59:16;;;;;;;;;;;;;;;2.07;76.17;97198.28;6396581;27;19923;-62
2021/12/04 02:02:19;;;;;;;;;;;;;;;1.97;76.74;97202.00;6396696;27;20006;-63
2021/12/04 02:05:20;;;;;;;;;;;;;;;2.04;76.51;97211.34;6397684;27;19934;-63
2021/12/04 02:08:22;;;;;;;;;;;;;;;2.12;76.59;97204.19;6401523;27;19929;-63
2021/12/04 02:11:23;;;;;;;;;;;;;;;2.25;76.24;97209.91;6399730;27;19923;-63
2021/12/04 02:14:27;;;;;;;;;;;;;;;2.09;76.26;97209.47;6401197;27;19923;-63
2021/12/04 02:17:28;;;;;;;;;;;;;;;2.22;76.61;97204.81;6400968;27;20063;-63
2021/12/04 02:20:31;;;;;;;;;;;;;;;2.17;76.51;97210.13;6401491;27;19930;-63
2021/12/04 02:23:35;;;;;;;;;;;;;;;2.18;76.44;97214.44;6400957;27;19923;-64
2021/12/04 02:26:38;;;;;;;;;;;;;;;2.11;76.33;97205.09;6401011;27;19923;-63
2021/12/04 02:29:48;;;;;;;;;;;;;;;2.02;76.62;97200.13;6400804;27;19923;-63
2021/12/04 02:32:50;;;;;;;;;;;;;;;2.11;76.49;97215.47;6399634;27;19923;-63
2021/12/04 02:35:52;;;;;;;;;;;;;;;2.20;76.26;97206.59;6399851;27;19923;-63
2021/12/04 02:38:56;;;;;;;;;;;;;;;2.23;76.50;97211.69;6400802;27;19923;-63
2021/12/04 02:41:58;;;;;;;;;;;;;;;2.12;76.32;97227.53;6400074;27;20400;-64
2021/12/04 02:45:00;;;;;;;;;;;;;;;2.18;76.59;97224.81;6382291;27;20015;-63
2021/12/04 02:48:01;;;;;;;;;;;;;;;2.06;76.75;97216.47;6400424;27;19923;-63
2021/12/04 02:51:02;;;;;;;;;;;;;;;2.10;76.60;97226.75;6400428;27;19946;-63
2021/12/04 02:54:04;;;;;;;;;;;;;;;1.99;76.63;97213.19;6399411;27;19923;-64
2021/12/04 02:57:07;;;;;;;;;;;;;;;2.02;77.18;97218.31;6400253;27;20339;-63
2021/12/04 03:00:09;;;;;;;;;;;;;;;1.98;77.08;97221.84;6400115;27;19923;-64
2021/12/04 03:03:10;;;;;;;;;;;;;;;1.97;76.85;97222.75;6399453;27;19923;-63
2021/12/04 03:06:11;;;;;;;;;;;;;;;1.95;77.10;97216.75;6399772;27;20464;-64
2021/12/04 03:09:12;;;;;;;;;;;;;;;2.02;77.09;97219.16;6400075;27;20292;-63
2021/12/04 03:12:15;;;;;;;;;;;;;;;2.03;77.18;97225.19;6399993;27;19923;-63
2021/12/04 03:15:21;;;;;;;;;;;;;;;2.13;76.69;97236.22;6399858;27;19923;-63
2021/12/04 03:18:24;;;;;;;;;;;;;;;2.12;76.88;97245.72;6398842;27;20392;-63
2021/12/04 03:21:26;;;;;;;;;;;;;;;2.16;76.27;97262.94;6398556;27;19923;-64
2021/12/04 03:24:27;;;;;;;;;;;;;;;2.15;76.45;97269.03;6398562;27;19930;-63
2021/12/04 03:27:31;;;;;;;;;;;;;;;2.24;75.70;97254.97;6398609;27;20308;-63
2021/12/04 03:30:47;;;;;;;;;;;;;;;2.13;75.67;97268.22;6399377;27;19927;-63
2021/12/04 03:43:34;;;;;;;;;;;;;;;2.18;74.67;97268.06;6399544;27;19934;-64
2021/12/04 03:46:35;;;;;;;;;;;;;;;2.28;74.77;97281.69;6398947;27;20007;-64
2021/12/04 03:49:38;;;;;;;;;;;;;;;2.30;74.34;97285.13;6398743;27;20369;-63
2021/12/04 03:52:40;;;;;;;;;;;;;;;2.28;74.41;97292.09;6398563;27;19930;-63
2021/12/04 03:55:41;;;;;;;;;;;;;;;2.39;73.87;97310.84;6398373;27;20022;-63
2021/12/04 03:58:42;;;;;;;;;;;;;;;2.40;73.63;97297.81;6398457;27;19923;-62
2021/12/04 04:01:43;;;;;;;;;;;;;;;2.48;73.64;97315.78;6398558;27;19919;-62
2021/12/04 04:04:46;;;;;;;;;;;;;;;2.50;73.43;97311.41;6398408;27;19923;-63
2021/12/04 04:07:48;;;;;;;;;;;;;;;2.59;73.20;97312.94;6398321;27;19919;-63
2021/12/04 04:10:52;;;;;;;;;;;;;;;2.60;73.34;97305.06;6397802;27;19923;-63
2021/12/04 04:13:55;;;;;;;;;;;;;;;2.69;72.73;97310.06;6398445;27;19919;-63
2021/12/04 04:16:57;;;;;;;;;;;;;;;2.65;72.32;97311.00;6398225;27;19930;-63
2021/12/04 04:19:58;;;;;;;;;;;;;;;2.75;72.04;97313.38;6396714;27;19923;-64
2021/12/04 04:23:03;;;;;;;;;;;;;;;2.74;72.19;97319.47;6398124;27;19927;-63
2021/12/04 04:26:05;;;;;;;;;;;;;;;2.62;72.46;97313.69;6397039;27;19919;-64
2021/12/04 04:29:10;;;;;;;;;;;;;;;2.63;72.57;97315.41;6396961;27;19948;-65
2021/12/04 04:32:17;;;;;;;;;;;;;;;2.74;72.38;97319.47;6397923;27;20387;-64
2021/12/04 04:35:24;;;;;;;;;;;;;;;2.74;72.56;97327.25;6397954;27;19927;-64
2021/12/04 05:02:16;;;;;;;;;;;;;;;3.26;71.00;97285.06;6396364;27;19923;-64
2021/12/04 05:12:14;;;;;;;;;;;;;;;3.43;69.43;97305.38;6397427;27;19930;-64
2021/12/04 05:15:34;;;;;;;;;;;;;;;3.45;69.59;97290.56;6397156;27;19927;-64
2021/12/04 05:18:37;;;;;;;;;;;;;;;3.26;69.79;97297.22;6397463;27;20296;-63
2021/12/04 05:21:41;;;;;;;;;;;;;;;3.14;70.41;97296.69;6397137;27;20013;-64
2021/12/04 05:24:42;;;;;;;;;;;;;;;3.17;70.90;97306.16;6396806;27;19923;-64
2021/12/04 05:27:43;;;;;;;;;;;;;;;3.28;70.75;97309.28;6396424;27;19962;-64
2021/12/04 05:30:44;;;;;;;;;;;;;;;3.29;70.60;97308.38;6397147;27;20040;-65
2021/12/04 05:33:50;;;;;;;;;;;;;;;3.46;70.30;97313.09;6397259;27;19923;-65
2021/12/04 05:36:52;;;;;;;;;;;;;;;3.67;69.70;97315.94;6397041;27;19930;-65
2021/12/04 05:39:55;;;;;;;;;;;;;;;3.69;69.54;97314.16;6398167;27;19926;-64
2021/12/04 05:43:03;;;;;;;;;;;;;;;3.78;68.98;97313.88;6401193;27;19946;-64
2021/12/04 05:46:13;;;;;;;;;;;;;;;3.88;68.42;97298.81;6402112;27;20066;-64
2021/12/04 05:49:22;;;;;;;;;;;;;;;3.83;69.06;97305.03;6401770;27;20395;-64
2021/12/04 05:55:51;;;;;;;;;;;;;;;4.17;67.15;97301.34;6401412;27;20408;-64
2021/12/04 05:58:52;;;;;;;;;;;;;;;4.17;67.01;97321.34;6401322;27;19930;-64
2021/12/04 06:01:53;;;;;;;;;;;;;;;4.11;67.72;97317.19;6401131;27;19926;-64
2021/12/04 06:04:54;;;;;;;;;;;;;;;4.25;67.20;97314.13;6400517;27;19923;-65
2021/12/04 06:07:55;;;;;;;;;;;;;;;4.14;67.58;97311.03;6400298;27;20353;-65
2021/12/04 06:10:57;;;;;;;;;;;;;;;4.48;66.32;97329.84;6401459;27;20420;-63
2021/12/04 06:14:00;;;;;;;;;;;;;;;4.61;65.94;97321.63;6401324;27;20391;-63
2021/12/04 06:17:03;;;;;;;;;;;;;;;4.53;65.73;97334.03;6401072;27;19923;-64
2021/12/04 06:23:24;;;;;;;;;;;;;;;4.47;66.23;97335.09;6401213;27;19923;-64
2021/12/04 06:26:28;;;;;;;;;;;;;;;4.23;66.99;97336.78;6400927;27;19923;-63
2021/12/04 06:29:31;;;;;;;;;;;;;;;4.23;66.94;97321.13;6400817;27;20036;-63
2021/12/04 06:32:35;;;;;;;;;;;;;;;4.34;66.90;97321.63;6399471;27;20387;-64
2021/12/04 06:35:41;;;;;;;;;;;;;;;4.46;66.60;97316.00;6399624;27;19930;-64
2021/12/04 06:38:42;;;;;;;;;;;;;;;4.61;65.97;97311.19;6398938;27;20395;-64
2021/12/04 06:41:46;;;;;;;;;;;;;;;4.55;65.64;97306.19;6400463;27;20303;-64
2021/12/04 06:44:47;;;;;;;;;;;;;;;4.65;65.90;97297.16;6399830;27;20003;-64
2021/12/04 06:47:58;;;;;;;;;;;;;;;4.79;64.65;97284.50;6400130;27;19922;-64
2021/12/04 06:51:07;;;;;;;;;;;;;;;4.64;64.96;97285.00;6399780;27;19923;-66
2021/12/04 06:54:14;;;;;;;;;;;;;;;4.82;64.35;97271.34;6400374;27;20472;-64
2021/12/04 06:57:16;;;;;;;;;;;;;;;4.89;63.77;97269.38;6381220;27;19923;-64
2021/12/04 07:00:25;;;;;;;;;;;;;;;4.95;63.16;97277.84;6400161;27;20017;-64
2021/12/04 07:03:26;;;;;;;;;;;;;;;4.87;63.30;97277.25;6400104;27;19929;-64
2021/12/04 07:06:27;;;;;;;;;;;;;;;4.84;63.54;97279.97;6399202;27;20344;-63
2021/12/04 07:09:31;;;;;;;;;;;;;;;5.05;62.86;97280.94;6398848;27;19929;-63
2021/12/04 07:12:34;;;;;;;;;;;;;;;4.91;62.94;97284.06;6399874;27;20021;-63
2021/12/04 07:15:38;;;;;;;;;;;;;;;4.80;63.40;97277.53;6399558;27;19930;-63
2021/12/04 07:18:41;;;;;;;;;;;;;;;4.74;63.07;97286.41;6399609;27;19927;-64
2021/12/04 07:21:44;;;;;;;;;;;;;;;4.71;63.10;97276.09;6399285;27;19922;-63
2021/12/04 07:24:48;;;;;;;;;;;;;;;4.75;62.71;97288.09;6399145;27;19930;-64
2021/12/04 07:27:50;;;;;;;;;;;;;;;4.70;62.93;97279.63;6399015;27;19923;-64
2021/12/04 07:30:54;;;;;;;;;;;;;;;4.59;63.40;97279.97;6398423;27;19922;-63
2021/12/04 07:33:55;;;;;;;;;;;;;;;4.67;62.69;97282.31;6398716;27;19923;-65
2021/12/04 07:36:59;;;;;;;;;;;;;;;4.67;62.56;97279.69;6398315;27;19930;-65
2021/12/04 07:40:02;;;;;;;;;;;;;;;4.65;62.56;97282.38;6398407;27;19923;-64
2021/12/04 07:43:04;;;;;;;;;;;;;;;4.69;62.60;97277.91;6398523;27;19923;-63
2021/12/04 07:46:07;;;;;;;;;;;;;;;4.56;62.82;97277.47;6398568;27;20387;-64
2021/12/04 07:49:08;;;;;;;;;;;;;;;4.45;63.45;97264.81;6398027;27;19996;-64
2021/12/04 07:52:12;;;;;;;;;;;;;;;4.45;63.16;97274.41;6398707;27;19935;-63
2021/12/04 07:55:13;;;;;;;;;;;;;;;4.56;62.56;97276.59;6398577;27;20018;-64
2021/12/04 07:58:15;;;;;;;;;;;;;;;4.54;62.84;97271.47;6398721;27;19927;-63
2021/12/04 08:01:16;;;;;;;;;;;;;;;4.52;62.88;97267.22;6398600;27;19930;-64
2021/12/04 08:04:17;;;;;;;;;;;;;;;4.30;63.45;97265.31;6397706;27;20376;-64
2021/12/04 08:07:18;;;;;;;;;;;;;;;4.36;63.21;97270.34;6397972;27;19962;-63
2021/12/04 08:10:19;;;;;;;;;;;;;;;4.56;62.55;97248.81;6398572;27;19922;-63
2021/12/04 08:13:22;;;;;;;;;;;;;;;4.38;63.20;97268.50;6398420;27;20383;-63
2021/12/04 08:16:26;;;;;;;;;;;;;;;4.62;62.64;97255.56;6398121;27;19923;-63
2021/12/04 08:19:27;;;;;;;;;;;;;;;4.62;62.62;97263.38;6397188;27;19923;-63
2021/12/04 08:22:28;;;;;;;;;;;;;;;4.49;63.02;97253.38;6398026;27;19937;-64
2021/12/04 08:25:31;;;;;;;;;;;;;;;4.49;62.99;97242.94;6396928;27;20021;-64
2021/12/04 08:28:32;;;;;;;;;;;;;;;4.48;62.67;97238.66;6397458;27;20414;-64
2021/12/04 08:31:37;;;;;;;;;;;;;;;4.55;62.12;97256.66;6397505;27;19934;-63
2021/12/04 08:34:38;;;;;;;;;;;;;;;4.50;62.24;97260.31;6396501;27;19930;-63
2021/12/04 08:37:41;;;;;;;;;;;;;;;4.44;62.26;97250.06;6396429;27;19930;-63
2021/12/04 08:40:48;;;;;;;;;;;;;;;4.41;62.43;97237.16;6397616;27;19923;-64
2021/12/04 08:43:54;;;;;;;;;;;;;;;4.51;61.81;97232.47;6396483;27;19930;-63
2021/12/04 08:46:59;;;;;;;;;;;;;;;4.61;61.22;97240.81;6397508;27;20406;-63
2021/12/04 08:50:00;;;;;;;;;;;;;;;4.62;61.12;97239.94;6397394;27;19927;-63
2021/12/04 08:53:04;;;;;;;;;;;;;;;4.54;61.36;97231.53;6397620;27;19923;-64
2021/12/04 08:56:05;;;;;;;;;;;;;;;4.63;61.58;97236.41;6395605;27;20003;-64
2021/12/04 08:59:07;;;;;;;;;;;;;;;4.65;61.75;97234.59;6396400;27;19922;-64
2021/12/04 09:02:11;;;;;;;;;;;;;;;4.71;61.59;97223.97;6397057;27;19934;-63
2021/12/04 09:05:17;;;;;;;;;;;;;;;4.69;61.94;97231.81;6396330;27;19930;-63
2021/12/04 09:08:22;;;;;;;;;;;;;;;4.64;62.34;97227.66;6396950;27;20387;-63
2021/12/04 09:11:29;;;;;;;;;;;;;;;4.65;62.31;97239.81;6397007;27;19930;-64
2021/12/04 09:14:32;;;;;;;;;;;;;;;4.52;62.72;97238.53;6396522;27;19946;-62
2021/12/04 09:17:35;;;;;;;;;;;;;;;4.45;63.41;97233.53;6402427;27;20295;-64
2021/12/04 09:20:36;;;;;;;;;;;;;;;4.51;63.13;97242.91;6401960;27;19923;-64
2021/12/04 09:23:53;;;;;;;;;;;;;;;4.49;63.69;97245.56;6402148;27;19923;-63
2021/12/04 09:33:57;;;;;;;;;;;;;;;4.60;63.41;97246.94;6401105;27;19930;-64
2021/12/04 09:40:15;;;;;;;;;;;;;;;4.63;63.51;97247.69;6402087;27;20322;-64
2021/12/04 10:00:45;;;;;;;;;;;;;;;4.07;66.00;97236.59;6400716;27;19984;-64
2021/12/04 10:04:23;;;;;;;;;;;;;;;4.18;65.98;97247.50;6400247;27;19923;-63
2021/12/04 10:14:47;;;;;;;;;;;;;;;4.17;66.49;97238.00;6400446;27;20018;-63
2021/12/04 10:34:24;;;;;;;;;;;;;;;4.13;67.24;97231.19;6400663;27;19919;-64
2021/12/04 10:37:31;;;;;;;;;;;;;;;3.97;67.55;97223.88;6400599;27;20376;-64
2021/12/04 10:40:44;;;;;;;;;;;;;;;3.99;67.78;97224.69;6400848;27;19922;-64
2021/12/04 10:43:45;;;;;;;;;;;;;;;3.96;67.76;97224.78;6399737;27;20330;-63
2021/12/04 10:46:55;;;;;;;;;;;;;;;4.05;67.29;97232.28;6399448;27;19923;-63
2021/12/04 10:53:14;;;;;;;;;;;;;;;3.57;68.91;97235.56;6399288;27;20021;-64
2021/12/04 10:59:38;;;;;;;;;;;;;;;3.55;69.88;97239.97;6400304;27;19945;-62
2021/12/04 11:02:47;;;;;;;;;;;;;;;3.66;69.32;97233.59;6400115;27;19930;-62
2021/12/04 11:45:29;;;;;;;;;;;;;;;3.64;68.69;97204.16;6399159;27;19923;-66
2021/12/04 11:48:35;;;;;;;;;;;;;;;3.62;68.67;97200.75;6399038;27;19929;-64
2021/12/04 11:51:46;;;;;;;;;;;;;;;3.63;68.93;97184.25;6398914;27;20427;-65
2021/12/04 11:54:57;;;;;;;;;;;;;;;3.53;69.22;97194.06;6398341;27;20013;-63
2021/12/04 11:57:58;;;;;;;;;;;;;;;3.54;69.02;97188.84;6398045;27;20017;-64
2021/12/04 12:01:04;;;;;;;;;;;;;;;3.34;69.65;97180.78;6397787;27;19937;-64
2021/12/04 12:04:09;;;;;;;;;;;;;;;3.24;70.14;97182.00;6398485;27;19919;-63
2021/12/04 12:07:16;;;;;;;;;;;;;;;3.28;70.14;97178.38;6398527;27;19923;-64
2021/12/04 12:10:17;;;;;;;;;;;;;;;3.25;70.25;97183.69;6397593;27;19925;-63
2021/12/04 12:13:37;;;;;;;;;;;;;;;3.27;70.08;97177.53;6398030;27;19922;-64
2021/12/04 12:16:46;;;;;;;;;;;;;;;3.12;70.32;97178.88;6398012;27;19923;-63
2021/12/04 12:19:52;;;;;;;;;;;;;;;3.11;70.42;97187.56;6397821;27;19923;-65
2021/12/04 12:23:01;;;;;;;;;;;;;;;2.95;70.89;97181.13;6398053;27;19930;-63
2021/12/04 12:36:17;;;;;;;;;;;;;;;2.79;71.80;97182.47;6396940;27;19930;-64
2021/12/04 12:39:21;;;;;;;;;;;;;;;2.81;71.68;97183.28;6398049;27;20392;-63
2021/12/04 12:42:31;;;;;;;;;;;;;;;2.85;71.60;97174.47;6396166;27;20418;-64
2021/12/04 12:45:35;;;;;;;;;;;;;;;2.87;71.69;97183.94;6397443;27;19970;-64
2021/12/04 12:48:48;;;;;;;;;;;;;;;3.02;71.05;97185.22;6396728;27;19930;-63
2021/12/04 12:51:54;;;;;;;;;;;;;;;2.86;71.25;97187.44;6378732;27;19945;-64
2021/12/04 12:55:01;;;;;;;;;;;;;;;2.87;71.48;97183.09;6397337;27;20322;-63
2021/12/04 12:59:02;;;;;;;;;;;;;;;2.82;71.70;97174.56;6397079;27;20410;-64
2021/12/04 13:12:14;;;;;;;;;;;;;;;2.63;71.94;97164.72;6396914;27;19980;-65
2021/12/04 13:15:38;;;;;;;;;;;;;;;2.37;72.45;97160.25;6396518;27;19931;-64
2021/12/04 13:18:44;;;;;;;;;;;;;;;2.16;73.03;97153.91;6379286;27;19930;-63
2021/12/04 13:21:50;;;;;;;;;;;;;;;2.05;73.72;97145.56;6392566;27;19944;-63
2021/12/04 13:24:51;;;;;;;;;;;;;;;2.18;73.33;97146.94;6397057;27;19923;-64
2021/12/04 13:30:55;;;;;;;;;;;;;;;2.02;73.84;97150.81;6395965;27;20414;-65
2021/12/04 13:33:56;;;;;;;;;;;;;;;1.85;74.24;97153.00;6397031;27;20504;-64
2021/12/04 13:37:00;;;;;;;;;;;;;;;1.97;73.69;97144.91;6396865;27;19923;-65
2021/12/04 13:40:06;;;;;;;;;;;;;;;1.99;73.56;97140.53;6395629;27;19923;-64
2021/12/04 13:43:09;;;;;;;;;;;;;;;1.88;73.67;97147.75;6378209;27;19923;-63
2021/12/04 13:46:13;;;;;;;;;;;;;;;1.82;73.96;97147.91;6396685;27;19945;-64
2021/12/04 13:49:15;;;;;;;;;;;;;;;1.66;74.02;97137.91;6395895;27;20296;-62
2021/12/04 13:52:19;;;;;;;;;;;;;;;1.56;73.78;97141.63;6396722;27;19930;-63
2021/12/04 13:55:23;;;;;;;;;;;;;;;1.78;73.43;97132.44;6396177;27;19922;-63
2021/12/04 13:58:26;;;;;;;;;;;;;;;2.03;72.48;97134.34;6396576;27;19927;-64
2021/12/04 14:01:41;;;;;;;;;;;;;;;2.19;71.59;97125.25;6398573;27;20025;-65
2021/12/04 14:04:42;;;;;;;;;;;;;;;2.05;71.64;97129.97;6399738;27;20022;-63
2021/12/04 14:07:55;;;;;;;;;;;;;;;2.14;70.93;97119.34;6400963;27;19923;-63
2021/12/04 14:10:56;;;;;;;;;;;;;;;2.03;71.44;97131.75;6400413;27;19930;-63
2021/12/04 14:14:11;;;;;;;;;;;;;;;2.11;70.53;97123.78;6401449;27;19933;-66
2021/12/04 14:17:14;;;;;;;;;;;;;;;1.98;71.00;97133.63;6400511;27;19923;-64
2021/12/04 14:20:22;;;;;;;;;;;;;;;2.17;70.34;97124.44;6400747;27;19929;-64
2021/12/04 14:23:29;;;;;;;;;;;;;;;2.13;69.98;97141.00;6400959;27;19923;-64
2021/12/04 14:26:30;;;;;;;;;;;;;;;2.15;69.84;97135.75;6399857;27;19927;-64
2021/12/04 14:29:35;;;;;;;;;;;;;;;2.32;69.08;97132.69;6400399;27;20486;-64
2021/12/04 14:32:40;;;;;;;;;;;;;;;2.24;69.10;97120.81;6399995;27;20055;-65
2021/12/04 14:35:46;;;;;;;;;;;;;;;2.30;68.85;97118.94;6401034;27;19925;-65
2021/12/04 14:38:47;;;;;;;;;;;;;;;2.30;68.52;97113.75;6399598;27;19923;-64
2021/12/04 14:41:48;;;;;;;;;;;;;;;2.30;68.53;97129.31;6399567;27;19923;-64
2021/12/04 14:44:51;;;;;;;;;;;;;;;2.33;68.52;97119.69;6400114;27;20018;-63
2021/12/04 14:47:56;;;;;;;;;;;;;;;2.41;68.02;97122.91;6400386;27;19922;-65
2021/12/04 14:51:04;;;;;;;;;;;;;;;2.58;67.21;97112.03;6399184;27;19923;-63
2021/12/04 14:54:06;;;;;;;;;;;;;;;2.72;66.94;97115.97;6399488;27;19927;-64
2021/12/04 14:57:15;;;;;;;;;;;;;;;2.75;66.36;97102.91;6381184;27;19923;-64
2021/12/04 15:00:32;;;;;;;;;;;;;;;2.79;66.00;97102.75;6400069;27;19923;-65
2021/12/04 15:03:40;;;;;;;;;;;;;;;2.78;65.63;97095.03;6399817;27;20021;-65
2021/12/04 15:06:41;;;;;;;;;;;;;;;2.93;65.09;97113.56;6399950;27;20011;-64
2021/12/04 15:09:42;;;;;;;;;;;;;;;3.03;64.65;97095.97;6399138;27;19930;-63
2021/12/04 15:12:44;;;;;;;;;;;;;;;3.02;64.54;97088.19;6398199;27;20406;-64
2021/12/04 15:15:45;;;;;;;;;;;;;;;3.08;64.38;97094.03;6398679;27;19931;-65
2021/12/04 15:18:48;;;;;;;;;;;;;;;3.10;64.19;97073.22;6398027;27;19923;-64
2021/12/04 15:21:55;;;;;;;;;;;;;;;3.12;64.30;97095.66;6398667;27;19923;-66
2021/12/04 15:24:59;;;;;;;;;;;;;;;3.06;64.35;97069.88;6399779;27;19929;-64
2021/12/04 15:28:01;;;;;;;;;;;;;;;3.15;64.28;97074.75;6398365;27;19933;-65
2021/12/04 15:31:07;;;;;;;;;;;;;;;3.20;64.32;97078.94;6399563;27;20383;-65
2021/12/04 15:34:11;;;;;;;;;;;;;;;3.12;64.51;97081.81;6399191;27;19939;-64
2021/12/04 15:37:24;;;;;;;;;;;;;;;3.12;64.40;97080.06;6398254;27;19932;-65
2021/12/04 15:40:35;;;;;;;;;;;;;;;3.05;64.77;97062.09;6397974;27;19930;-65
2021/12/04 15:43:54;;;;;;;;;;;;;;;3.12;64.46;97056.66;6398856;27;19930;-65
2021/12/04 15:47:33;;;;;;;;;;;;;;;3.09;64.41;97074.13;6379370;27;20303;-65
2021/12/04 15:53:57;;;;;;;;;;;;;;;3.07;64.08;97045.56;6398610;27;19923;-65
2021/12/04 15:56:59;;;;;;;;;;;;;;;2.94;64.58;97049.44;6397287;27;20366;-65
2021/12/04 16:00:08;;;;;;;;;;;;;;;2.95;64.26;97055.50;6398524;27;19923;-65
2021/12/04 16:03:14;;;;;;;;;;;;;;;2.83;64.50;97035.94;6397757;27;19935;-64
2021/12/04 16:06:20;;;;;;;;;;;;;;;2.84;64.54;97027.25;6398550;27;19930;-65
2021/12/04 16:09:31;;;;;;;;;;;;;;;2.80;64.61;97049.91;6397548;27;20404;-64
2021/12/04 16:12:32;;;;;;;;;;;;;;;3.04;63.72;97044.81;6380023;27;19931;-64
2021/12/04 16:15:35;;;;;;;;;;;;;;;2.96;63.89;97047.66;6398306;27;19923;-64
2021/12/04 16:18:39;;;;;;;;;;;;;;;2.94;63.84;97033.84;6398380;27;19930;-65
2021/12/04 16:21:45;;;;;;;;;;;;;;;2.99;63.34;97021.56;6398016;27;20409;-64
2021/12/04 16:24:50;;;;;;;;;;;;;;;2.95;63.37;97025.16;6397937;27;19923;-65
2021/12/04 16:38:04;;;;;;;;;;;;;;;2.91;63.73;97021.78;6397261;27;19923;-64
2021/12/04 16:40:43;;;;;;;;;;;;;;;2.70;64.09;97012.94;6386171;27;19929;-64
2021/12/04 16:43:49;;;;;;;;;;;;;;;2.95;63.16;97013.94;6397856;27;19923;-67
2021/12/04 16:46:51;;;;;;;;;;;;;;;2.84;63.52;97016.88;6397855;27;20395;-64
2021/12/04 16:49:53;;;;;;;;;;;;;;;2.79;63.62;96998.81;6397679;27;20296;-64
2021/12/04 16:59:26;;;;;;;;;;;;;;;2.75;63.53;97011.97;6397562;27;19923;-64
2021/12/04 17:02:30;;;;;;;;;;;;;;;2.67;63.62;97007.84;6397458;27;19923;-64
2021/12/04 17:05:33;;;;;;;;;;;;;;;2.62;63.76;96995.91;6396382;27;19923;-65
2021/12/04 17:08:36;;;;;;;;;;;;;;;2.64;63.71;97005.34;6397245;27;19923;-64
2021/12/04 17:11:39;;;;;;;;;;;;;;;2.60;63.96;97002.88;6396291;27;19926;-64
2021/12/04 17:14:40;;;;;;;;;;;;;;;2.66;63.78;97005.28;6396468;27;19931;-63
2021/12/04 17:17:46;;;;;;;;;;;;;;;2.61;63.83;96948.28;6362559;27;20017;-63
2021/12/04 17:20:48;;;;;;;;;;;;;;;2.70;63.80;97002.53;6396286;27;19924;-66
2021/12/04 17:23:49;;;;;;;;;;;;;;;2.73;63.51;96982.56;6396351;27;19923;-64
2021/12/04 17:26:51;;;;;;;;;;;;;;;2.78;63.29;96963.34;6396267;27;19930;-64
2021/12/04 17:29:53;;;;;;;;;;;;;;;2.75;63.50;96981.63;6396318;27;19923;-65
2021/12/04 17:32:54;;;;;;;;;;;;;;;2.70;63.24;96994.75;6396363;27;19923;-64
2021/12/04 17:35:55;;;;;;;;;;;;;;;2.64;63.50;96981.97;6397801;27;20289;-66
2021/12/04 17:38:56;;;;;;;;;;;;;;;2.65;63.46;96981.06;6400533;27;20426;-64
2021/12/04 17:42:02;;;;;;;;;;;;;;;2.72;63.29;96975.66;6402229;27;19923;-64
2021/12/04 17:45:07;;;;;;;;;;;;;;;2.66;63.40;96985.38;6402270;27;19923;-64
2021/12/04 17:48:10;;;;;;;;;;;;;;;2.59;63.63;96986.44;6400827;27;19922;-64
2021/12/04 17:51:13;;;;;;;;;;;;;;;2.76;62.94;96979.88;6400915;27;19929;-64
2021/12/04 17:54:18;;;;;;;;;;;;;;;2.80;62.76;96986.66;6401604;27;20412;-64
2021/12/04 17:57:19;;;;;;;;;;;;;;;2.66;63.25;96967.19;6382033;27;19979;-64
2021/12/04 18:00:22;;;;;;;;;;;;;;;2.74;62.88;96984.25;6400151;27;20244;-64
2021/12/04 18:03:25;;;;;;;;;;;;;;;2.67;63.31;96955.88;6400722;27;19952;-63
2021/12/04 18:06:27;;;;;;;;;;;;;;;2.52;63.96;96953.78;6400658;27;20311;-65
2021/12/04 18:09:33;;;;;;;;;;;;;;;2.59;63.08;96963.06;6401612;27;19915;-63
2021/12/04 18:12:37;;;;;;;;;;;;;;;2.52;63.58;96958.97;6400470;27;19946;-65
2021/12/04 18:15:44;;;;;;;;;;;;;;;2.50;63.77;96955.56;6382321;27;19925;-64
2021/12/04 18:18:45;;;;;;;;;;;;;;;2.33;64.46;96961.28;6400214;27;19930;-64
2021/12/04 18:21:52;;;;;;;;;;;;;;;2.28;64.29;96954.53;6401061;27;19927;-63
2021/12/04 18:24:53;;;;;;;;;;;;;;;2.25;64.70;96965.88;6399510;27;19923;-64
2021/12/04 18:27:54;;;;;;;;;;;;;;;2.33;64.31;96973.44;6400591;27;20292;-64
2021/12/04 18:30:56;;;;;;;;;;;;;;;2.23;64.76;96960.69;6400557;27;20396;-64
2021/12/04 18:33:57;;;;;;;;;;;;;;;1.79;65.18;96957.69;6400331;27;19975;-65
2021/12/04 18:36:58;;;;;;;;;;;;;;;1.48;66.40;96956.88;6399965;27;19923;-63
2021/12/04 18:40:03;;;;;;;;;;;;;;;1.35;66.81;96946.81;6400741;27;19923;-62
2021/12/04 18:43:08;;;;;;;;;;;;;;;1.20;67.21;96942.03;6400669;27;19923;-63
2021/12/04 18:46:10;;;;;;;;;;;;;;;0.94;67.86;96950.50;6399635;27;19946;-63
2021/12/04 18:49:14;;;;;;;;;;;;;;;0.88;68.62;96935.97;6399962;27;19930;-64
2021/12/04 18:52:15;;;;;;;;;;;;;;;0.76;69.32;96931.06;6399459;27;19923;-63
2021/12/04 18:55:17;;;;;;;;;;;;;;;0.70;69.44;96928.66;6400188;27;19923;-64
2021/12/04 18:58:18;;;;;;;;;;;;;;;0.64;69.31;96915.84;6399785;27;19923;-64
2021/12/04 19:01:20;;;;;;;;;;;;;;;0.59;69.50;96917.69;6399351;27;20083;-63
2021/12/04 19:04:21;;;;;;;;;;;;;;;0.61;69.30;96928.88;6398532;27;19927;-63
2021/12/04 19:07:22;;;;;;;;;;;;;;;0.60;68.84;96924.59;6399900;27;19930;-63
2021/12/04 19:10:26;;;;;;;;;;;;;;;0.69;68.93;96916.59;6399109;27;19923;-64
2021/12/04 19:13:28;;;;;;;;;;;;;;;0.54;68.81;96909.19;6399141;27;19923;-63
2021/12/04 19:16:29;;;;;;;;;;;;;;;0.51;68.69;96901.50;6398997;27;19930;-65
2021/12/04 19:19:31;;;;;;;;;;;;;;;0.43;69.81;96897.38;6398490;27;19929;-64
2021/12/04 19:22:38;;;;;;;;;;;;;;;0.55;69.75;96900.56;6398708;27;19927;-63
2021/12/04 19:25:40;;;;;;;;;;;;;;;0.63;69.33;96899.47;6398999;27;19923;-64
2021/12/04 19:28:44;;;;;;;;;;;;;;;0.49;69.53;96888.59;6399589;27;19923;-63
2021/12/04 19:31:53;;;;;;;;;;;;;;;0.69;68.90;96893.28;6399594;27;19923;-64
2021/12/04 19:48:19;;;;;;;;;;;;;;;0.26;69.53;96873.66;6398482;27;19922;-63